Archival Weather

Chicago O'Hare International

Chicago, Illinois (KORD)

Report from: Wednesday, November 23, 2022 2:51 PM CST
Current time: Thursday, July 18, 2024 10:47 PM CDT

Current weather – Weather history – Daily summaries
Weather forecast

Temperature14.4°C (57.9°F)
Dew point4.4°C (39.9°F)
Winds 11 kts (5.7 m/s, 12.7 mph) South-Southwest (200°)
Wind gusts 16 kts (8.2 m/s, 18.4 mph)
Visibility10 mi. (16.1 km)
Clouds Scattered clouds 25,000 ft. (7,620 m)
Altimeter30.10 in.Hg (1019 mB)
Relative humidity51 %
Density altitude-158 ft. (-48 m)
Sea-level pressure102.0 kPa (1020 mB, 30.11 in.Hg)
Remarks System requires maintenance
Automated weather observing station with precipitation discriminator
Pressure falling more slowly
Flight conditions Visual Meteorological Conditions
Raw dataKORD 232051Z 20011G16KT 10SM SCT250 14/04 A3010 RMK AO2 SLP195 T01440044 56011 $
An error has occurred. This application may no longer respond until reloaded. Reload 🗙